sensor_id;sensor_type;location;lat;lon;timestamp;temperature;humidity
2751;DHT22;1383;48.362;10.908;2023-06-22T00:01:46;21.50;74.80
2751;DHT22;1383;48.362;10.908;2023-06-22T00:04:13;21.50;74.30
2751;DHT22;1383;48.362;10.908;2023-06-22T00:06:40;21.50;74.90
2751;DHT22;1383;48.362;10.908;2023-06-22T00:09:07;21.60;74.40
2751;DHT22;1383;48.362;10.908;2023-06-22T00:11:34;21.60;73.50
2751;DHT22;1383;48.362;10.908;2023-06-22T00:14:01;21.60;73.60
2751;DHT22;1383;48.362;10.908;2023-06-22T00:16:28;21.60;72.80
2751;DHT22;1383;48.362;10.908;2023-06-22T00:18:55;21.50;73.00
2751;DHT22;1383;48.362;10.908;2023-06-22T00:21:22;21.50;73.30
2751;DHT22;1383;48.362;10.908;2023-06-22T00:23:49;21.50;73.60
2751;DHT22;1383;48.362;10.908;2023-06-22T00:26:16;21.50;73.50
2751;DHT22;1383;48.362;10.908;2023-06-22T00:28:43;21.50;73.00
2751;DHT22;1383;48.362;10.908;2023-06-22T00:31:10;21.50;73.50
2751;DHT22;1383;48.362;10.908;2023-06-22T00:33:37;21.50;73.00
2751;DHT22;1383;48.362;10.908;2023-06-22T00:36:05;21.50;72.90
2751;DHT22;1383;48.362;10.908;2023-06-22T00:38:33;21.60;72.70
2751;DHT22;1383;48.362;10.908;2023-06-22T00:41:00;21.70;72.10
2751;DHT22;1383;48.362;10.908;2023-06-22T00:43:26;21.70;71.30
2751;DHT22;1383;48.362;10.908;2023-06-22T00:45:55;21.70;71.20
2751;DHT22;1383;48.362;10.908;2023-06-22T00:48:23;21.60;71.40
2751;DHT22;1383;48.362;10.908;2023-06-22T00:50:50;21.60;72.00
2751;DHT22;1383;48.362;10.908;2023-06-22T00:53:20;21.60;72.30
2751;DHT22;1383;48.362;10.908;2023-06-22T00:55:48;21.70;71.60
2751;DHT22;1383;48.362;10.908;2023-06-22T00:58:18;21.70;70.80
2751;DHT22;1383;48.362;10.908;2023-06-22T01:00:48;21.70;71.00
2751;DHT22;1383;48.362;10.908;2023-06-22T01:03:15;21.60;71.50
2751;DHT22;1383;48.362;10.908;2023-06-22T01:05:44;21.50;71.70
2751;DHT22;1383;48.362;10.908;2023-06-22T01:13:29;21.30;73.30
2751;DHT22;1383;48.362;10.908;2023-06-22T01:16:05;21.20;73.80
2751;DHT22;1383;48.362;10.908;2023-06-22T01:18:36;21.20;74.30
2751;DHT22;1383;48.362;10.908;2023-06-22T01:21:06;21.20;74.60
2751;DHT22;1383;48.362;10.908;2023-06-22T01:23:56;21.20;74.30
2751;DHT22;1383;48.362;10.908;2023-06-22T01:29:21;21.10;74.60
2751;DHT22;1383;48.362;10.908;2023-06-22T01:31:50;21.00;75.20
2751;DHT22;1383;48.362;10.908;2023-06-22T01:34:17;20.90;75.60
2751;DHT22;1383;48.362;10.908;2023-06-22T01:36:46;21.00;75.50
2751;DHT22;1383;48.362;10.908;2023-06-22T01:39:13;20.90;75.80
2751;DHT22;1383;48.362;10.908;2023-06-22T01:41:41;20.90;76.30
2751;DHT22;1383;48.362;10.908;2023-06-22T01:44:09;20.80;76.60
2751;DHT22;1383;48.362;10.908;2023-06-22T01:46:38;20.70;77.60
2751;DHT22;1383;48.362;10.908;2023-06-22T01:49:06;20.70;78.40
2751;DHT22;1383;48.362;10.908;2023-06-22T01:51:34;20.60;79.00
2751;DHT22;1383;48.362;10.908;2023-06-22T01:54:01;20.70;78.80
2751;DHT22;1383;48.362;10.908;2023-06-22T01:56:29;20.70;78.80
2751;DHT22;1383;48.362;10.908;2023-06-22T01:59:18;20.70;78.80
2751;DHT22;1383;48.362;10.908;2023-06-22T02:02:09;20.60;78.90
2751;DHT22;1383;48.362;10.908;2023-06-22T02:04:41;20.70;78.90
2751;DHT22;1383;48.362;10.908;2023-06-22T02:07:14;20.70;78.50
2751;DHT22;1383;48.362;10.908;2023-06-22T02:09:45;20.70;78.80
2751;DHT22;1383;48.362;10.908;2023-06-22T02:12:17;20.70;77.50
2751;DHT22;1383;48.362;10.908;2023-06-22T02:14:46;20.70;78.00
2751;DHT22;1383;48.362;10.908;2023-06-22T02:17:13;20.60;78.50
2751;DHT22;1383;48.362;10.908;2023-06-22T02:19:44;20.70;78.10
2751;DHT22;1383;48.362;10.908;2023-06-22T02:22:11;20.70;77.80
2751;DHT22;1383;48.362;10.908;2023-06-22T02:24:39;20.60;78.10
2751;DHT22;1383;48.362;10.908;2023-06-22T02:27:06;20.60;78.70
2751;DHT22;1383;48.362;10.908;2023-06-22T02:29:33;20.60;78.80
2751;DHT22;1383;48.362;10.908;2023-06-22T02:32:00;20.60;78.80
2751;DHT22;1383;48.362;10.908;2023-06-22T02:34:28;20.60;78.90
2751;DHT22;1383;48.362;10.908;2023-06-22T02:36:55;20.60;78.40
2751;DHT22;1383;48.362;10.908;2023-06-22T02:39:23;20.70;78.50
2751;DHT22;1383;48.362;10.908;2023-06-22T02:41:52;20.70;78.30
2751;DHT22;1383;48.362;10.908;2023-06-22T02:44:20;20.70;78.40
2751;DHT22;1383;48.362;10.908;2023-06-22T02:46:48;20.80;77.80
2751;DHT22;1383;48.362;10.908;2023-06-22T02:49:15;20.80;77.30
2751;DHT22;1383;48.362;10.908;2023-06-22T02:51:45;20.80;76.70
2751;DHT22;1383;48.362;10.908;2023-06-22T02:54:12;20.70;77.50
2751;DHT22;1383;48.362;10.908;2023-06-22T02:56:39;20.60;78.50
2751;DHT22;1383;48.362;10.908;2023-06-22T02:59:07;20.50;78.50
2751;DHT22;1383;48.362;10.908;2023-06-22T03:01:34;20.40;79.60
2751;DHT22;1383;48.362;10.908;2023-06-22T03:04:08;20.40;80.40
2751;DHT22;1383;48.362;10.908;2023-06-22T03:06:35;20.40;81.30
2751;DHT22;1383;48.362;10.908;2023-06-22T03:09:04;20.40;81.30
2751;DHT22;1383;48.362;10.908;2023-06-22T03:11:32;20.30;82.20
2751;DHT22;1383;48.362;10.908;2023-06-22T03:14:02;20.30;82.40
2751;DHT22;1383;48.362;10.908;2023-06-22T03:16:28;20.30;83.00
2751;DHT22;1383;48.362;10.908;2023-06-22T03:18:56;20.20;83.60
2751;DHT22;1383;48.362;10.908;2023-06-22T03:21:25;20.20;84.00
2751;DHT22;1383;48.362;10.908;2023-06-22T03:23:52;20.20;84.50
2751;DHT22;1383;48.362;10.908;2023-06-22T03:26:19;20.20;85.00
2751;DHT22;1383;48.362;10.908;2023-06-22T03:28:46;20.10;85.00
2751;DHT22;1383;48.362;10.908;2023-06-22T03:31:13;20.10;85.50
2751;DHT22;1383;48.362;10.908;2023-06-22T03:33:40;20.10;86.10
2751;DHT22;1383;48.362;10.908;2023-06-22T03:36:08;20.10;86.10
2751;DHT22;1383;48.362;10.908;2023-06-22T03:38:35;20.10;86.20
2751;DHT22;1383;48.362;10.908;2023-06-22T03:41:02;20.10;85.90
2751;DHT22;1383;48.362;10.908;2023-06-22T03:43:29;20.10;85.60
2751;DHT22;1383;48.362;10.908;2023-06-22T03:45:56;20.20;85.70
2751;DHT22;1383;48.362;10.908;2023-06-22T03:48:22;20.20;86.60
2751;DHT22;1383;48.362;10.908;2023-06-22T03:50:49;20.30;85.40
2751;DHT22;1383;48.362;10.908;2023-06-22T03:53:16;20.30;84.60
2751;DHT22;1383;48.362;10.908;2023-06-22T03:55:51;20.20;84.40
2751;DHT22;1383;48.362;10.908;2023-06-22T03:58:19;20.30;84.50
2751;DHT22;1383;48.362;10.908;2023-06-22T04:00:48;20.30;84.20
2751;DHT22;1383;48.362;10.908;2023-06-22T04:03:15;20.40;84.00
2751;DHT22;1383;48.362;10.908;2023-06-22T04:05:42;20.50;83.60
2751;DHT22;1383;48.362;10.908;2023-06-22T04:08:09;20.60;82.60
2751;DHT22;1383;48.362;10.908;2023-06-22T04:10:36;20.80;81.20
2751;DHT22;1383;48.362;10.908;2023-06-22T04:13:03;20.80;79.40
2751;DHT22;1383;48.362;10.908;2023-06-22T04:15:30;20.90;78.50
2751;DHT22;1383;48.362;10.908;2023-06-22T04:17:57;20.90;78.20
2751;DHT22;1383;48.362;10.908;2023-06-22T04:20:24;20.90;78.40
2751;DHT22;1383;48.362;10.908;2023-06-22T04:22:55;21.00;77.30
2751;DHT22;1383;48.362;10.908;2023-06-22T04:25:22;21.10;76.80
2751;DHT22;1383;48.362;10.908;2023-06-22T04:27:49;21.00;77.20
2751;DHT22;1383;48.362;10.908;2023-06-22T04:30:16;21.10;76.40
2751;DHT22;1383;48.362;10.908;2023-06-22T04:32:44;21.00;76.00
2751;DHT22;1383;48.362;10.908;2023-06-22T04:35:11;20.80;77.70
2751;DHT22;1383;48.362;10.908;2023-06-22T04:37:38;20.80;78.50
2751;DHT22;1383;48.362;10.908;2023-06-22T04:40:06;20.70;79.20
2751;DHT22;1383;48.362;10.908;2023-06-22T04:42:38;20.80;79.10
2751;DHT22;1383;48.362;10.908;2023-06-22T04:45:05;20.70;79.70
2751;DHT22;1383;48.362;10.908;2023-06-22T04:47:32;20.60;80.30
2751;DHT22;1383;48.362;10.908;2023-06-22T04:49:59;20.60;80.40
2751;DHT22;1383;48.362;10.908;2023-06-22T04:52:26;20.70;80.10
2751;DHT22;1383;48.362;10.908;2023-06-22T04:54:53;20.80;79.70
2751;DHT22;1383;48.362;10.908;2023-06-22T04:57:25;21.00;78.70
2751;DHT22;1383;48.362;10.908;2023-06-22T04:59:59;21.10;77.20
2751;DHT22;1383;48.362;10.908;2023-06-22T05:02:39;21.30;75.50
2751;DHT22;1383;48.362;10.908;2023-06-22T05:05:07;21.40;74.90
2751;DHT22;1383;48.362;10.908;2023-06-22T05:07:35;21.60;72.90
2751;DHT22;1383;48.362;10.908;2023-06-22T05:10:05;21.70;71.90
2751;DHT22;1383;48.362;10.908;2023-06-22T05:12:32;21.80;71.20
2751;DHT22;1383;48.362;10.908;2023-06-22T05:14:59;22.20;69.30
2751;DHT22;1383;48.362;10.908;2023-06-22T05:17:26;22.30;66.30
2751;DHT22;1383;48.362;10.908;2023-06-22T05:19:53;22.30;66.30
2751;DHT22;1383;48.362;10.908;2023-06-22T05:22:20;22.70;65.60
2751;DHT22;1383;48.362;10.908;2023-06-22T05:24:47;23.00;63.30
2751;DHT22;1383;48.362;10.908;2023-06-22T05:27:14;23.20;61.60
2751;DHT22;1383;48.362;10.908;2023-06-22T05:29:41;23.40;59.50
2751;DHT22;1383;48.362;10.908;2023-06-22T05:32:09;23.50;59.00
2751;DHT22;1383;48.362;10.908;2023-06-22T05:34:39;23.70;58.50
2751;DHT22;1383;48.362;10.908;2023-06-22T05:37:06;23.50;58.10
2751;DHT22;1383;48.362;10.908;2023-06-22T05:39:35;23.50;58.50
2751;DHT22;1383;48.362;10.908;2023-06-22T05:42:05;23.60;57.80
2751;DHT22;1383;48.362;10.908;2023-06-22T05:44:36;23.40;58.10
2751;DHT22;1383;48.362;10.908;2023-06-22T05:47:04;23.70;57.40
2751;DHT22;1383;48.362;10.908;2023-06-22T05:49:31;23.80;56.70
2751;DHT22;1383;48.362;10.908;2023-06-22T05:51:59;24.00;56.60
2751;DHT22;1383;48.362;10.908;2023-06-22T05:54:29;24.40;55.60
2751;DHT22;1383;48.362;10.908;2023-06-22T05:56:56;24.70;54.00
2751;DHT22;1383;48.362;10.908;2023-06-22T05:59:23;24.80;53.30
2751;DHT22;1383;48.362;10.908;2023-06-22T06:01:50;24.80;52.90
2751;DHT22;1383;48.362;10.908;2023-06-22T06:04:18;24.90;51.90
2751;DHT22;1383;48.362;10.908;2023-06-22T06:06:46;24.60;53.40
2751;DHT22;1383;48.362;10.908;2023-06-22T06:09:15;24.30;54.10
2751;DHT22;1383;48.362;10.908;2023-06-22T06:11:42;24.30;55.20
2751;DHT22;1383;48.362;10.908;2023-06-22T06:14:09;24.70;53.90
2751;DHT22;1383;48.362;10.908;2023-06-22T06:16:36;25.00;52.50
2751;DHT22;1383;48.362;10.908;2023-06-22T06:19:03;25.20;51.70
2751;DHT22;1383;48.362;10.908;2023-06-22T06:21:30;25.30;51.50
2751;DHT22;1383;48.362;10.908;2023-06-22T06:23:57;25.10;52.50
2751;DHT22;1383;48.362;10.908;2023-06-22T06:26:24;25.20;52.00
2751;DHT22;1383;48.362;10.908;2023-06-22T06:28:56;25.10;52.00
2751;DHT22;1383;48.362;10.908;2023-06-22T06:31:22;24.90;53.00
2751;DHT22;1383;48.362;10.908;2023-06-22T06:33:50;25.00;52.50
2751;DHT22;1383;48.362;10.908;2023-06-22T06:36:17;25.40;52.20
2751;DHT22;1383;48.362;10.908;2023-06-22T06:38:44;25.90;50.70
2751;DHT22;1383;48.362;10.908;2023-06-22T06:41:11;26.10;48.80
2751;DHT22;1383;48.362;10.908;2023-06-22T06:43:38;25.90;50.20
2751;DHT22;1383;48.362;10.908;2023-06-22T06:46:04;26.50;48.90
2751;DHT22;1383;48.362;10.908;2023-06-22T06:48:31;26.60;47.00
2751;DHT22;1383;48.362;10.908;2023-06-22T06:50:58;26.60;47.50
2751;DHT22;1383;48.362;10.908;2023-06-22T06:53:25;26.40;46.90
2751;DHT22;1383;48.362;10.908;2023-06-22T06:55:52;26.40;46.90
2751;DHT22;1383;48.362;10.908;2023-06-22T06:58:19;26.40;47.00
2751;DHT22;1383;48.362;10.908;2023-06-22T07:00:46;26.30;47.50
2751;DHT22;1383;48.362;10.908;2023-06-22T07:03:13;26.50;47.10
2751;DHT22;1383;48.362;10.908;2023-06-22T07:05:39;26.90;46.40
2751;DHT22;1383;48.362;10.908;2023-06-22T07:08:06;27.40;45.00
2751;DHT22;1383;48.362;10.908;2023-06-22T07:10:33;28.00;43.30
2751;DHT22;1383;48.362;10.908;2023-06-22T07:13:00;28.50;42.60
2751;DHT22;1383;48.362;10.908;2023-06-22T07:15:27;28.80;40.50
2751;DHT22;1383;48.362;10.908;2023-06-22T07:17:54;28.70;39.10
2751;DHT22;1383;48.362;10.908;2023-06-22T07:20:21;28.90;39.20
2751;DHT22;1383;48.362;10.908;2023-06-22T07:22:51;29.30;38.70
2751;DHT22;1383;48.362;10.908;2023-06-22T07:25:18;29.10;37.90
2751;DHT22;1383;48.362;10.908;2023-06-22T07:28:05;28.90;38.80
2751;DHT22;1383;48.362;10.908;2023-06-22T07:30:33;28.30;39.60
2751;DHT22;1383;48.362;10.908;2023-06-22T07:33:02;27.90;40.30
2751;DHT22;1383;48.362;10.908;2023-06-22T07:35:31;28.20;40.70
2751;DHT22;1383;48.362;10.908;2023-06-22T07:37:58;28.20;40.00
2751;DHT22;1383;48.362;10.908;2023-06-22T07:40:28;28.20;40.20
2751;DHT22;1383;48.362;10.908;2023-06-22T07:42:56;28.50;39.80
2751;DHT22;1383;48.362;10.908;2023-06-22T07:45:26;28.60;39.10
2751;DHT22;1383;48.362;10.908;2023-06-22T07:48:59;28.80;38.80
2751;DHT22;1383;48.362;10.908;2023-06-22T07:51:27;29.30;37.90
2751;DHT22;1383;48.362;10.908;2023-06-22T07:53:57;29.60;37.10
2751;DHT22;1383;48.362;10.908;2023-06-22T07:56:24;29.80;36.70
2751;DHT22;1383;48.362;10.908;2023-06-22T07:58:54;30.10;35.90
2751;DHT22;1383;48.362;10.908;2023-06-22T08:01:21;29.30;36.70
2751;DHT22;1383;48.362;10.908;2023-06-22T08:03:49;29.20;37.40
2751;DHT22;1383;48.362;10.908;2023-06-22T08:06:16;29.60;36.60
2751;DHT22;1383;48.362;10.908;2023-06-22T08:08:43;30.10;35.80
2751;DHT22;1383;48.362;10.908;2023-06-22T08:11:10;30.30;34.90
2751;DHT22;1383;48.362;10.908;2023-06-22T08:13:37;30.50;33.80
2751;DHT22;1383;48.362;10.908;2023-06-22T08:16:04;30.40;34.50
2751;DHT22;1383;48.362;10.908;2023-06-22T08:18:31;31.10;33.00
2751;DHT22;1383;48.362;10.908;2023-06-22T08:20:58;31.40;31.60
2751;DHT22;1383;48.362;10.908;2023-06-22T08:23:25;30.70;32.40
2751;DHT22;1383;48.362;10.908;2023-06-22T08:25:52;30.90;33.60
2751;DHT22;1383;48.362;10.908;2023-06-22T08:28:19;31.60;31.80
2751;DHT22;1383;48.362;10.908;2023-06-22T08:30:47;31.50;31.50
2751;DHT22;1383;48.362;10.908;2023-06-22T08:33:14;31.80;31.40
2751;DHT22;1383;48.362;10.908;2023-06-22T08:35:54;32.40;29.10
2751;DHT22;1383;48.362;10.908;2023-06-22T08:38:23;32.30;29.30
2751;DHT22;1383;48.362;10.908;2023-06-22T08:40:51;31.90;30.30
2751;DHT22;1383;48.362;10.908;2023-06-22T08:43:18;32.20;30.00
2751;DHT22;1383;48.362;10.908;2023-06-22T08:45:45;32.10;29.40
2751;DHT22;1383;48.362;10.908;2023-06-22T08:48:12;32.00;29.70
2751;DHT22;1383;48.362;10.908;2023-06-22T08:50:40;31.80;30.00
2751;DHT22;1383;48.362;10.908;2023-06-22T08:53:08;32.00;29.40
2751;DHT22;1383;48.362;10.908;2023-06-22T08:55:35;32.30;29.70
2751;DHT22;1383;48.362;10.908;2023-06-22T08:58:02;32.60;28.80
2751;DHT22;1383;48.362;10.908;2023-06-22T09:00:30;32.10;29.30
2751;DHT22;1383;48.362;10.908;2023-06-22T09:03:01;32.20;29.10
2751;DHT22;1383;48.362;10.908;2023-06-22T09:05:29;32.70;28.40
2751;DHT22;1383;48.362;10.908;2023-06-22T09:07:56;32.60;28.30
2751;DHT22;1383;48.362;10.908;2023-06-22T09:10:25;32.20;28.80
2751;DHT22;1383;48.362;10.908;2023-06-22T09:12:53;31.80;29.10
2751;DHT22;1383;48.362;10.908;2023-06-22T09:15:20;31.70;29.70
2751;DHT22;1383;48.362;10.908;2023-06-22T09:17:47;31.70;29.40
2751;DHT22;1383;48.362;10.908;2023-06-22T09:20:15;31.50;30.10
2751;DHT22;1383;48.362;10.908;2023-06-22T09:22:42;31.90;29.30
2751;DHT22;1383;48.362;10.908;2023-06-22T09:25:09;32.00;29.60
2751;DHT22;1383;48.362;10.908;2023-06-22T09:27:36;32.40;28.90
2751;DHT22;1383;48.362;10.908;2023-06-22T09:30:04;33.30;28.20
2751;DHT22;1383;48.362;10.908;2023-06-22T09:32:31;33.80;27.20
2751;DHT22;1383;48.362;10.908;2023-06-22T09:34:58;33.50;26.00
2751;DHT22;1383;48.362;10.908;2023-06-22T09:37:25;33.40;26.10
2751;DHT22;1383;48.362;10.908;2023-06-22T09:39:53;33.70;26.30
2751;DHT22;1383;48.362;10.908;2023-06-22T09:42:20;34.20;26.50
2751;DHT22;1383;48.362;10.908;2023-06-22T09:44:47;34.70;25.70
2751;DHT22;1383;48.362;10.908;2023-06-22T09:47:14;35.20;25.20
2751;DHT22;1383;48.362;10.908;2023-06-22T09:49:44;35.40;24.00
2751;DHT22;1383;48.362;10.908;2023-06-22T09:52:15;35.20;24.40
2751;DHT22;1383;48.362;10.908;2023-06-22T09:55:02;34.60;24.40
2751;DHT22;1383;48.362;10.908;2023-06-22T09:57:30;34.90;24.90
2751;DHT22;1383;48.362;10.908;2023-06-22T09:59:57;34.40;25.20
2751;DHT22;1383;48.362;10.908;2023-06-22T10:02:24;33.30;25.40
2751;DHT22;1383;48.362;10.908;2023-06-22T10:04:52;33.60;26.60
2751;DHT22;1383;48.362;10.908;2023-06-22T10:07:19;33.70;26.00
2751;DHT22;1383;48.362;10.908;2023-06-22T10:09:46;33.40;26.60
2751;DHT22;1383;48.362;10.908;2023-06-22T10:12:14;33.90;26.30
2751;DHT22;1383;48.362;10.908;2023-06-22T10:14:41;34.50;25.90
2751;DHT22;1383;48.362;10.908;2023-06-22T10:17:09;34.80;25.20
2751;DHT22;1383;48.362;10.908;2023-06-22T10:19:36;35.70;23.80
2751;DHT22;1383;48.362;10.908;2023-06-22T10:22:05;35.00;23.40
2751;DHT22;1383;48.362;10.908;2023-06-22T10:24:32;33.90;25.00
2751;DHT22;1383;48.362;10.908;2023-06-22T10:26:59;33.80;25.30
2751;DHT22;1383;48.362;10.908;2023-06-22T10:29:28;33.70;25.70
2751;DHT22;1383;48.362;10.908;2023-06-22T10:31:55;34.00;25.60
2751;DHT22;1383;48.362;10.908;2023-06-22T10:34:22;34.00;24.80
2751;DHT22;1383;48.362;10.908;2023-06-22T10:36:49;34.10;24.40
2751;DHT22;1383;48.362;10.908;2023-06-22T10:39:16;34.00;24.30
2751;DHT22;1383;48.362;10.908;2023-06-22T10:41:43;34.00;24.60
2751;DHT22;1383;48.362;10.908;2023-06-22T10:44:11;33.90;24.60
2751;DHT22;1383;48.362;10.908;2023-06-22T10:46:39;34.30;24.80
2751;DHT22;1383;48.362;10.908;2023-06-22T10:49:08;34.80;24.00
2751;DHT22;1383;48.362;10.908;2023-06-22T10:51:35;34.60;23.80
2751;DHT22;1383;48.362;10.908;2023-06-22T10:54:02;34.60;24.30
2751;DHT22;1383;48.362;10.908;2023-06-22T10:56:31;34.40;24.50
2751;DHT22;1383;48.362;10.908;2023-06-22T10:59:01;34.30;25.10
2751;DHT22;1383;48.362;10.908;2023-06-22T11:01:28;34.20;24.90
2751;DHT22;1383;48.362;10.908;2023-06-22T11:04:03;34.20;26.30
2751;DHT22;1383;48.362;10.908;2023-06-22T11:06:31;34.10;25.20
2751;DHT22;1383;48.362;10.908;2023-06-22T11:08:59;33.90;26.10
2751;DHT22;1383;48.362;10.908;2023-06-22T11:11:28;33.40;26.00
2751;DHT22;1383;48.362;10.908;2023-06-22T11:13:55;32.80;26.00
2751;DHT22;1383;48.362;10.908;2023-06-22T11:16:23;32.60;26.60
2751;DHT22;1383;48.362;10.908;2023-06-22T11:18:49;32.60;27.20
2751;DHT22;1383;48.362;10.908;2023-06-22T11:21:16;32.90;26.80
2751;DHT22;1383;48.362;10.908;2023-06-22T11:23:44;33.00;27.00
2751;DHT22;1383;48.362;10.908;2023-06-22T11:26:12;33.00;26.10
2751;DHT22;1383;48.362;10.908;2023-06-22T11:28:39;32.90;26.50
2751;DHT22;1383;48.362;10.908;2023-06-22T11:31:06;32.80;26.20
2751;DHT22;1383;48.362;10.908;2023-06-22T11:33:51;32.80;26.00
2751;DHT22;1383;48.362;10.908;2023-06-22T11:36:19;32.50;26.00
2751;DHT22;1383;48.362;10.908;2023-06-22T11:38:46;32.00;26.10
2751;DHT22;1383;48.362;10.908;2023-06-22T11:41:13;32.10;26.30
2751;DHT22;1383;48.362;10.908;2023-06-22T11:43:41;32.30;26.10
2751;DHT22;1383;48.362;10.908;2023-06-22T11:46:08;32.50;26.20
2751;DHT22;1383;48.362;10.908;2023-06-22T11:48:35;32.40;26.10
2751;DHT22;1383;48.362;10.908;2023-06-22T11:51:03;32.40;25.60
2751;DHT22;1383;48.362;10.908;2023-06-22T11:53:30;32.60;25.80
2751;DHT22;1383;48.362;10.908;2023-06-22T11:55:58;32.40;25.80
2751;DHT22;1383;48.362;10.908;2023-06-22T11:58:25;32.50;25.90
2751;DHT22;1383;48.362;10.908;2023-06-22T12:00:52;32.40;26.30
2751;DHT22;1383;48.362;10.908;2023-06-22T12:03:20;32.40;26.30
2751;DHT22;1383;48.362;10.908;2023-06-22T12:05:51;32.60;26.20
2751;DHT22;1383;48.362;10.908;2023-06-22T12:08:19;32.90;25.90
2751;DHT22;1383;48.362;10.908;2023-06-22T12:10:46;33.00;25.50
2751;DHT22;1383;48.362;10.908;2023-06-22T12:13:13;33.20;26.00
2751;DHT22;1383;48.362;10.908;2023-06-22T12:15:41;33.20;25.70
2751;DHT22;1383;48.362;10.908;2023-06-22T12:18:08;33.50;25.60
2751;DHT22;1383;48.362;10.908;2023-06-22T12:20:36;33.80;25.20
2751;DHT22;1383;48.362;10.908;2023-06-22T12:23:03;34.00;24.70
2751;DHT22;1383;48.362;10.908;2023-06-22T12:25:30;34.20;24.40
2751;DHT22;1383;48.362;10.908;2023-06-22T12:27:57;34.00;24.10
2751;DHT22;1383;48.362;10.908;2023-06-22T12:30:24;34.00;24.30
2751;DHT22;1383;48.362;10.908;2023-06-22T12:32:51;33.90;24.90
2751;DHT22;1383;48.362;10.908;2023-06-22T12:35:21;33.70;24.70
2751;DHT22;1383;48.362;10.908;2023-06-22T12:37:48;33.80;25.10
2751;DHT22;1383;48.362;10.908;2023-06-22T12:40:16;33.80;24.70
2751;DHT22;1383;48.362;10.908;2023-06-22T12:42:45;33.80;24.70
2751;DHT22;1383;48.362;10.908;2023-06-22T12:45:12;33.70;24.90
2751;DHT22;1383;48.362;10.908;2023-06-22T12:47:39;33.60;24.70
2751;DHT22;1383;48.362;10.908;2023-06-22T12:50:07;33.50;24.80
2751;DHT22;1383;48.362;10.908;2023-06-22T12:52:36;33.40;25.00
2751;DHT22;1383;48.362;10.908;2023-06-22T12:55:06;33.30;25.20
2751;DHT22;1383;48.362;10.908;2023-06-22T12:57:33;33.00;25.50
2751;DHT22;1383;48.362;10.908;2023-06-22T13:00:00;32.90;26.00
2751;DHT22;1383;48.362;10.908;2023-06-22T13:02:27;32.90;25.60
2751;DHT22;1383;48.362;10.908;2023-06-22T13:04:55;32.90;26.20
2751;DHT22;1383;48.362;10.908;2023-06-22T13:07:22;33.10;25.60
2751;DHT22;1383;48.362;10.908;2023-06-22T13:09:50;33.10;25.10
2751;DHT22;1383;48.362;10.908;2023-06-22T13:12:20;33.10;25.50
2751;DHT22;1383;48.362;10.908;2023-06-22T13:14:48;33.10;25.40
2751;DHT22;1383;48.362;10.908;2023-06-22T13:17:15;33.10;25.50
2751;DHT22;1383;48.362;10.908;2023-06-22T13:19:43;33.20;25.30
2751;DHT22;1383;48.362;10.908;2023-06-22T13:22:31;33.20;25.50
2751;DHT22;1383;48.362;10.908;2023-06-22T13:24:59;33.30;25.30
2751;DHT22;1383;48.362;10.908;2023-06-22T13:27:27;33.20;24.90
2751;DHT22;1383;48.362;10.908;2023-06-22T13:29:54;33.00;26.00
2751;DHT22;1383;48.362;10.908;2023-06-22T13:32:21;32.90;25.20
2751;DHT22;1383;48.362;10.908;2023-06-22T13:34:49;33.00;25.10
2751;DHT22;1383;48.362;10.908;2023-06-22T13:37:16;33.00;24.70
2751;DHT22;1383;48.362;10.908;2023-06-22T13:39:43;33.10;24.70
2751;DHT22;1383;48.362;10.908;2023-06-22T13:42:10;33.30;24.30
2751;DHT22;1383;48.362;10.908;2023-06-22T13:44:41;33.50;23.70
2751;DHT22;1383;48.362;10.908;2023-06-22T13:47:09;33.60;23.70
2751;DHT22;1383;48.362;10.908;2023-06-22T13:49:38;33.70;23.70
2751;DHT22;1383;48.362;10.908;2023-06-22T13:52:10;33.80;23.60
2751;DHT22;1383;48.362;10.908;2023-06-22T13:54:39;33.90;23.40
2751;DHT22;1383;48.362;10.908;2023-06-22T13:57:08;34.00;23.40
2751;DHT22;1383;48.362;10.908;2023-06-22T13:59:35;34.00;23.00
2751;DHT22;1383;48.362;10.908;2023-06-22T14:02:02;34.00;22.10
2751;DHT22;1383;48.362;10.908;2023-06-22T14:04:29;34.00;22.20
2751;DHT22;1383;48.362;10.908;2023-06-22T14:06:57;33.90;22.10
2751;DHT22;1383;48.362;10.908;2023-06-22T14:09:24;33.90;22.40
2751;DHT22;1383;48.362;10.908;2023-06-22T14:11:51;33.90;22.40
2751;DHT22;1383;48.362;10.908;2023-06-22T14:14:18;33.90;22.20
2751;DHT22;1383;48.362;10.908;2023-06-22T14:16:45;34.00;21.30
2751;DHT22;1383;48.362;10.908;2023-06-22T14:19:12;34.10;21.20
2751;DHT22;1383;48.362;10.908;2023-06-22T14:21:39;34.20;20.60
2751;DHT22;1383;48.362;10.908;2023-06-22T14:24:06;34.20;20.00
2751;DHT22;1383;48.362;10.908;2023-06-22T14:26:33;34.20;20.30
2751;DHT22;1383;48.362;10.908;2023-06-22T14:29:01;34.20;20.30
2751;DHT22;1383;48.362;10.908;2023-06-22T14:31:28;34.10;20.10
2751;DHT22;1383;48.362;10.908;2023-06-22T14:33:58;34.00;20.00
2751;DHT22;1383;48.362;10.908;2023-06-22T14:36:25;34.00;20.20
2751;DHT22;1383;48.362;10.908;2023-06-22T14:38:53;34.00;20.10
2751;DHT22;1383;48.362;10.908;2023-06-22T14:41:24;34.00;20.20
2751;DHT22;1383;48.362;10.908;2023-06-22T14:43:51;34.10;20.00
2751;DHT22;1383;48.362;10.908;2023-06-22T14:46:19;34.10;19.10
2751;DHT22;1383;48.362;10.908;2023-06-22T14:48:47;34.20;19.00
2751;DHT22;1383;48.362;10.908;2023-06-22T14:51:14;34.20;17.90
2751;DHT22;1383;48.362;10.908;2023-06-22T14:53:44;34.10;18.00
2751;DHT22;1383;48.362;10.908;2023-06-22T14:56:12;34.20;18.10
2751;DHT22;1383;48.362;10.908;2023-06-22T14:58:40;34.20;18.30
2751;DHT22;1383;48.362;10.908;2023-06-22T15:01:10;34.20;18.30
2751;DHT22;1383;48.362;10.908;2023-06-22T15:03:37;34.00;18.40
2751;DHT22;1383;48.362;10.908;2023-06-22T15:06:04;34.10;18.70
2751;DHT22;1383;48.362;10.908;2023-06-22T15:08:31;34.10;18.50
2751;DHT22;1383;48.362;10.908;2023-06-22T15:11:00;34.20;18.00
2751;DHT22;1383;48.362;10.908;2023-06-22T15:13:31;34.20;18.20
2751;DHT22;1383;48.362;10.908;2023-06-22T15:16:02;34.30;19.10
2751;DHT22;1383;48.362;10.908;2023-06-22T15:18:33;34.30;19.80
2751;DHT22;1383;48.362;10.908;2023-06-22T15:21:03;34.20;19.30
2751;DHT22;1383;48.362;10.908;2023-06-22T15:23:31;34.10;19.30
2751;DHT22;1383;48.362;10.908;2023-06-22T15:26:01;34.00;19.30
2751;DHT22;1383;48.362;10.908;2023-06-22T15:28:29;33.90;19.70
2751;DHT22;1383;48.362;10.908;2023-06-22T15:30:59;33.90;18.60
2751;DHT22;1383;48.362;10.908;2023-06-22T15:33:26;33.80;19.30
2751;DHT22;1383;48.362;10.908;2023-06-22T15:35:53;33.70;19.70
2751;DHT22;1383;48.362;10.908;2023-06-22T15:38:21;33.60;20.10
2751;DHT22;1383;48.362;10.908;2023-06-22T15:40:48;33.60;20.00
2751;DHT22;1383;48.362;10.908;2023-06-22T15:43:15;33.60;19.60
2751;DHT22;1383;48.362;10.908;2023-06-22T15:45:42;33.60;20.00
2751;DHT22;1383;48.362;10.908;2023-06-22T15:48:09;33.60;19.80
2751;DHT22;1383;48.362;10.908;2023-06-22T15:50:36;33.70;20.00
2751;DHT22;1383;48.362;10.908;2023-06-22T15:53:04;33.60;20.60
2751;DHT22;1383;48.362;10.908;2023-06-22T15:55:31;33.60;20.40
2751;DHT22;1383;48.362;10.908;2023-06-22T15:57:58;33.50;21.00
2751;DHT22;1383;48.362;10.908;2023-06-22T16:00:26;33.50;21.40